createdAt,value
2018-12-16T00:00:50.884Z,16.67
2018-12-16T00:03:23.304Z,15.13
2018-12-16T00:05:55.861Z,15.83
2018-12-16T00:08:28.369Z,15.83
2018-12-16T00:11:00.677Z,15.43
2018-12-16T00:13:33.086Z,16.93
2018-12-16T00:16:05.697Z,16.43
2018-12-16T00:18:38.032Z,16.33
2018-12-16T00:21:10.659Z,16.57
2018-12-16T00:23:43.296Z,17.93
2018-12-16T00:26:15.954Z,17.47
2018-12-16T00:28:48.302Z,15.23
2018-12-16T00:31:20.698Z,16.63
2018-12-16T00:33:53.118Z,16.17
2018-12-16T00:36:25.537Z,16.90
2018-12-16T00:38:57.966Z,17.00
2018-12-16T00:41:30.445Z,15.97
2018-12-16T00:44:03.212Z,16.17
2018-12-16T00:46:35.626Z,16.23
2018-12-16T00:49:08.082Z,15.83
2018-12-16T00:51:40.633Z,16.40
2018-12-16T00:54:12.928Z,16.43
2018-12-16T00:56:45.276Z,16.33
2018-12-16T00:59:17.702Z,16.17
2018-12-16T01:01:50.109Z,15.40
2018-12-16T01:04:22.659Z,16.63
2018-12-16T01:06:55.276Z,15.33
2018-12-16T01:09:27.833Z,16.43
2018-12-16T01:12:00.336Z,15.60
2018-12-16T01:14:32.837Z,17.10
2018-12-16T01:17:05.632Z,16.13
2018-12-16T01:19:38.280Z,16.03
2018-12-16T01:22:10.906Z,16.87
2018-12-16T01:24:43.303Z,16.37
2018-12-16T01:27:15.788Z,16.70
2018-12-16T01:29:48.293Z,16.13
2018-12-16T01:32:20.777Z,15.50
2018-12-16T01:34:53.295Z,16.40
2018-12-16T01:37:25.702Z,16.03
2018-12-16T01:39:58.168Z,15.73
2018-12-16T01:42:31.275Z,16.57
2018-12-16T01:45:03.933Z,15.63
2018-12-16T01:47:36.467Z,15.40
2018-12-16T01:50:09.032Z,15.77
2018-12-16T01:52:41.597Z,16.57
2018-12-16T01:55:13.957Z,15.87
2018-12-16T01:57:46.366Z,15.57
2018-12-16T02:00:19.338Z,15.67
2018-12-16T02:02:58.967Z,16.17
2018-12-16T02:05:32.126Z,15.67
2018-12-16T02:08:04.636Z,15.67
2018-12-16T02:10:37.068Z,16.20
2018-12-16T02:13:09.633Z,15.47
2018-12-16T02:15:42.180Z,16.47
2018-12-16T02:18:14.620Z,15.97
2018-12-16T02:20:47.113Z,14.60
2018-12-16T02:23:19.551Z,15.47
2018-12-16T02:25:51.957Z,14.63
2018-12-16T02:28:24.327Z,16.17
2018-12-16T02:30:56.577Z,15.17
2018-12-16T02:33:29.014Z,15.93
2018-12-16T02:36:01.500Z,15.07
2018-12-16T02:38:34.006Z,15.27
2018-12-16T02:41:06.398Z,15.27
2018-12-16T02:43:38.817Z,14.93
2018-12-16T02:46:11.808Z,15.50
2018-12-16T02:48:44.176Z,15.87
2018-12-16T02:51:16.725Z,15.10
2018-12-16T02:53:49.075Z,15.37
2018-12-16T02:56:21.737Z,15.00
2018-12-16T02:58:54.332Z,16.70
2018-12-16T03:01:26.828Z,16.77
2018-12-16T03:03:59.282Z,15.13
2018-12-16T03:06:31.604Z,16.57
2018-12-16T03:09:04.309Z,16.27
2018-12-16T03:11:36.767Z,16.23
2018-12-16T03:14:09.169Z,16.33
2018-12-16T03:16:41.509Z,15.50
2018-12-16T03:19:14.349Z,15.23
2018-12-16T03:21:46.787Z,16.03
2018-12-16T03:24:19.270Z,16.13
2018-12-16T03:26:51.903Z,15.07
2018-12-16T03:29:24.406Z,15.83
2018-12-16T03:31:56.959Z,14.63
2018-12-16T03:34:29.362Z,15.50
2018-12-16T03:37:01.947Z,15.87
2018-12-16T03:39:34.501Z,16.87
2018-12-16T03:42:07.306Z,16.10
2018-12-16T03:44:39.845Z,16.47
2018-12-16T03:47:12.210Z,16.33
2018-12-16T03:49:44.823Z,17.23
2018-12-16T03:52:17.183Z,16.37
2018-12-16T03:54:49.563Z,16.33
2018-12-16T03:57:22.123Z,15.20
2018-12-16T03:59:54.533Z,15.97
2018-12-16T04:02:26.978Z,16.60
2018-12-16T04:04:59.466Z,15.17
2018-12-16T04:07:31.947Z,15.63
2018-12-16T04:10:04.804Z,15.40
2018-12-16T04:12:37.332Z,15.20
2018-12-16T04:15:09.747Z,16.50
2018-12-16T04:17:42.241Z,14.67
2018-12-16T04:20:14.638Z,15.30
2018-12-16T04:22:46.982Z,15.90
2018-12-16T04:25:20.804Z,15.23
2018-12-16T04:27:53.305Z,15.87
2018-12-16T04:30:25.716Z,15.37
2018-12-16T04:32:58.149Z,15.77
2018-12-16T04:35:30.500Z,15.50
2018-12-16T04:38:02.980Z,14.93
2018-12-16T04:40:35.352Z,15.40
2018-12-16T04:43:07.861Z,15.33
2018-12-16T04:45:40.551Z,15.40
2018-12-16T04:48:12.957Z,16.07
2018-12-16T04:50:45.352Z,16.07
2018-12-16T04:53:17.786Z,16.70
2018-12-16T04:55:50.098Z,16.07
2018-12-16T04:58:23.261Z,15.93
2018-12-16T05:00:55.797Z,15.80
2018-12-16T05:03:28.242Z,15.63
2018-12-16T05:06:00.676Z,16.23
2018-12-16T05:08:33.187Z,15.80
2018-12-16T05:11:05.581Z,16.07
2018-12-16T05:13:37.934Z,16.33
2018-12-16T05:16:10.589Z,16.33
2018-12-16T05:18:43.126Z,16.77
2018-12-16T05:21:15.555Z,16.40
2018-12-16T05:23:47.963Z,16.87
2018-12-16T05:26:27.252Z,16.47
2018-12-16T05:28:59.768Z,16.60
2018-12-16T05:31:32.266Z,15.53
2018-12-16T05:34:04.911Z,15.27
2018-12-16T05:36:37.529Z,16.27
2018-12-16T05:39:10.026Z,15.67
2018-12-16T05:41:42.386Z,16.03
2018-12-16T05:44:14.910Z,17.27
2018-12-16T05:46:47.349Z,16.00
2018-12-16T05:49:19.705Z,16.50
2018-12-16T05:51:52.228Z,17.80
2018-12-16T05:54:24.844Z,16.37
2018-12-16T05:56:57.262Z,17.07
2018-12-16T05:59:29.743Z,16.23
2018-12-16T06:02:02.166Z,15.90
2018-12-16T06:04:34.526Z,17.20
2018-12-16T06:07:07.103Z,16.33
2018-12-16T06:09:39.622Z,16.87
2018-12-16T06:12:12.325Z,16.33
2018-12-16T06:14:44.796Z,16.63
2018-12-16T06:17:17.291Z,17.73
2018-12-16T06:19:49.751Z,17.10
2018-12-16T06:22:22.126Z,17.53
2018-12-16T06:24:54.701Z,16.17
2018-12-16T06:27:27.487Z,16.97
2018-12-16T06:30:00.186Z,16.33
2018-12-16T06:32:32.585Z,17.47
2018-12-16T06:35:05.021Z,17.80
2018-12-16T06:37:37.465Z,16.73
2018-12-16T06:40:09.877Z,17.60
2018-12-16T06:42:42.296Z,18.00
2018-12-16T06:45:14.818Z,17.87
2018-12-16T06:47:47.366Z,16.40
2018-12-16T06:50:19.705Z,17.57
2018-12-16T06:52:52.249Z,17.57
2018-12-16T06:55:24.722Z,17.93
2018-12-16T06:57:57.724Z,17.27
2018-12-16T07:00:30.758Z,17.37
2018-12-16T07:03:03.446Z,17.03
2018-12-16T07:05:36.105Z,17.47
2018-12-16T07:08:08.460Z,18.03
2018-12-16T07:10:40.820Z,17.50
2018-12-16T07:13:13.246Z,16.53
2018-12-16T07:15:45.749Z,18.50
2018-12-16T07:18:18.154Z,18.00
2018-12-16T07:20:50.802Z,17.37
2018-12-16T07:23:23.203Z,18.50
2018-12-16T07:25:55.696Z,17.80
2018-12-16T07:28:28.155Z,18.30
2018-12-16T07:31:00.799Z,18.70
2018-12-16T07:33:34.021Z,18.43
2018-12-16T07:36:06.530Z,18.23
2018-12-16T07:38:38.990Z,19.80
2018-12-16T07:41:12.435Z,19.93
2018-12-16T07:43:44.860Z,18.53
2018-12-16T07:46:17.521Z,18.67
2018-12-16T07:48:50.247Z,19.33
2018-12-16T07:51:22.753Z,19.57
2018-12-16T07:53:55.324Z,19.77
2018-12-16T07:56:27.839Z,18.53
2018-12-16T07:59:00.234Z,19.70
2018-12-16T08:01:32.719Z,22.03
2018-12-16T08:04:05.294Z,20.20
2018-12-16T08:06:37.925Z,19.67
2018-12-16T08:09:17.631Z,19.57
2018-12-16T08:11:50.212Z,20.50
2018-12-16T08:14:22.735Z,20.07
2018-12-16T08:16:55.279Z,20.27
2018-12-16T08:19:28.075Z,20.67
2018-12-16T08:22:00.669Z,20.00
2018-12-16T08:24:33.094Z,21.35
2018-12-16T08:27:05.606Z,20.93
2018-12-16T08:29:38.329Z,20.37
2018-12-16T08:32:10.955Z,20.40
2018-12-16T08:34:43.406Z,20.20
2018-12-16T08:37:15.941Z,19.97
2018-12-16T08:39:48.669Z,21.73
2018-12-16T08:42:21.203Z,20.77
2018-12-16T08:44:53.717Z,21.03
2018-12-16T08:47:32.928Z,19.43
2018-12-16T08:50:00.919Z,21.73
2018-12-16T08:52:33.590Z,20.87
2018-12-16T08:55:06.148Z,20.43
2018-12-16T08:57:38.895Z,21.90
2018-12-16T09:00:11.606Z,21.27
2018-12-16T09:02:44.330Z,20.93
2018-12-16T09:05:16.871Z,20.80
2018-12-16T09:07:49.520Z,20.10
2018-12-16T09:10:22.071Z,19.70
2018-12-16T09:12:54.440Z,19.90
2018-12-16T09:15:26.925Z,20.17
2018-12-16T09:17:59.593Z,20.33
2018-12-16T09:20:32.183Z,20.60
2018-12-16T09:23:05.676Z,20.10
2018-12-16T09:25:38.163Z,19.80
2018-12-16T09:28:10.835Z,20.33
2018-12-16T09:30:43.345Z,21.40
2018-12-16T09:33:15.730Z,21.80
2018-12-16T09:35:48.175Z,20.83
2018-12-16T09:38:20.531Z,19.87
2018-12-16T09:40:52.981Z,20.37
2018-12-16T09:43:25.387Z,19.03
2018-12-16T09:45:57.929Z,18.47
2018-12-16T09:48:30.592Z,20.30
2018-12-16T09:51:03.061Z,20.17
2018-12-16T09:53:35.602Z,19.40
2018-12-16T09:56:08.226Z,20.30
2018-12-16T09:58:40.936Z,19.23
2018-12-16T10:01:13.651Z,20.17
2018-12-16T10:03:46.285Z,21.10
2018-12-16T10:06:18.790Z,19.93
2018-12-16T10:08:51.457Z,21.27
2018-12-16T10:11:24.025Z,20.77
2018-12-16T10:13:56.682Z,20.27
2018-12-16T10:16:29.250Z,19.80
2018-12-16T10:19:01.644Z,19.97
2018-12-16T10:21:34.060Z,20.07
2018-12-16T10:24:06.690Z,20.83
2018-12-16T10:26:39.559Z,18.77
2018-12-16T10:29:12.190Z,20.17
2018-12-16T10:31:44.655Z,19.63
2018-12-16T10:34:17.025Z,19.83
2018-12-16T10:36:49.490Z,19.47
2018-12-16T10:39:22.225Z,19.97
2018-12-16T10:41:54.866Z,19.03
2018-12-16T10:44:27.398Z,20.33
2018-12-16T10:46:59.816Z,20.60
2018-12-16T10:49:32.506Z,20.60
2018-12-16T10:52:05.084Z,19.10
2018-12-16T10:54:37.816Z,19.70
2018-12-16T10:57:10.189Z,19.47
2018-12-16T10:59:42.593Z,19.27
2018-12-16T11:02:15.067Z,19.57
2018-12-16T11:04:47.701Z,20.37
2018-12-16T11:07:20.322Z,19.70
2018-12-16T11:09:52.771Z,19.53
2018-12-16T11:12:25.490Z,20.07
2018-12-16T11:14:57.970Z,19.70
2018-12-16T11:17:30.483Z,20.20
2018-12-16T11:20:04.085Z,19.40
2018-12-16T11:22:36.495Z,18.63
2018-12-16T11:25:10.023Z,18.67
2018-12-16T11:27:42.521Z,18.77
2018-12-16T11:30:15.107Z,19.73
2018-12-16T11:32:48.759Z,21.20
2018-12-16T11:35:21.536Z,19.63
2018-12-16T11:37:53.969Z,20.27
2018-12-16T11:40:26.484Z,19.53
2018-12-16T11:42:59.130Z,18.27
2018-12-16T11:45:31.590Z,19.73
2018-12-16T11:48:04.047Z,19.13
2018-12-16T11:50:36.470Z,19.33
2018-12-16T11:53:08.907Z,18.83
2018-12-16T11:55:41.752Z,18.10
2018-12-16T11:58:14.127Z,20.50
2018-12-16T12:00:46.607Z,19.63
2018-12-16T12:03:20.419Z,19.33
2018-12-16T12:05:53.065Z,21.10
2018-12-16T12:08:25.566Z,20.10
2018-12-16T12:10:58.002Z,18.47
2018-12-16T12:13:30.448Z,19.73
2018-12-16T12:16:03.272Z,20.60
2018-12-16T12:18:35.761Z,19.50
2018-12-16T12:21:08.572Z,19.53
2018-12-16T12:23:41.128Z,19.70
2018-12-16T12:26:13.567Z,20.40
2018-12-16T12:28:46.379Z,19.53
2018-12-16T12:31:18.886Z,20.23
2018-12-16T12:33:51.543Z,19.90
2018-12-16T12:36:24.070Z,20.50
2018-12-16T12:38:56.455Z,19.87
2018-12-16T12:41:29.141Z,19.53
2018-12-16T12:44:01.799Z,19.53
2018-12-16T12:46:34.422Z,19.37
2018-12-16T12:49:06.959Z,21.30
2018-12-16T12:51:39.563Z,21.07
2018-12-16T12:54:12.177Z,19.57
2018-12-16T12:56:44.901Z,19.37
2018-12-16T12:59:17.500Z,20.23
2018-12-16T13:01:49.921Z,20.63
2018-12-16T13:04:22.498Z,19.53
2018-12-16T13:06:55.134Z,19.47
2018-12-16T13:09:27.582Z,20.33
2018-12-16T13:12:00.187Z,20.27
2018-12-16T13:14:32.677Z,20.07
2018-12-16T13:17:05.062Z,19.97
2018-12-16T13:19:37.603Z,19.23
2018-12-16T13:22:10.107Z,18.37
2018-12-16T13:24:55.229Z,20.00
2018-12-16T13:27:27.806Z,21.53
2018-12-16T13:30:00.483Z,19.47
2018-12-16T13:32:33.227Z,21.03
2018-12-16T13:35:06.034Z,19.60
2018-12-16T13:37:38.715Z,19.30
2018-12-16T13:40:11.593Z,19.80
2018-12-16T13:42:44.005Z,18.87
2018-12-16T13:45:16.655Z,20.37
2018-12-16T13:47:49.266Z,18.70
2018-12-16T13:50:21.769Z,19.30
2018-12-16T13:52:54.340Z,18.70
2018-12-16T13:55:27.079Z,19.17
2018-12-16T13:57:59.669Z,18.97
2018-12-16T14:00:32.246Z,18.53
2018-12-16T14:03:05.574Z,20.43
2018-12-16T14:05:37.862Z,20.23
2018-12-16T14:08:10.412Z,19.33
2018-12-16T14:10:43.003Z,19.60
2018-12-16T14:13:15.379Z,19.33
2018-12-16T14:15:52.321Z,19.27
2018-12-16T14:18:22.600Z,19.73
2018-12-16T14:20:55.341Z,19.17
2018-12-16T14:23:27.873Z,19.33
2018-12-16T14:26:00.296Z,20.57
2018-12-16T14:28:32.842Z,19.90
2018-12-16T14:31:05.356Z,20.10
2018-12-16T14:33:37.978Z,18.57
2018-12-16T14:36:10.466Z,20.80
2018-12-16T14:38:43.063Z,22.13
2018-12-16T14:41:15.555Z,21.87
2018-12-16T14:43:48.092Z,20.33
2018-12-16T14:46:20.780Z,20.50
2018-12-16T14:48:53.272Z,19.70
2018-12-16T14:51:26.055Z,20.17
2018-12-16T14:53:58.681Z,20.27
2018-12-16T14:56:31.393Z,19.53
2018-12-16T14:59:04.103Z,19.33
2018-12-16T15:01:36.741Z,19.77
2018-12-16T15:04:09.450Z,19.93
2018-12-16T15:06:42.077Z,20.70
2018-12-16T15:09:14.812Z,19.57
2018-12-16T15:11:47.322Z,19.20
2018-12-16T15:14:19.952Z,20.07
2018-12-16T15:16:53.233Z,20.00
2018-12-16T15:19:25.635Z,20.13
2018-12-16T15:21:58.206Z,19.37
2018-12-16T15:24:30.791Z,20.93
2018-12-16T15:27:03.242Z,20.27
2018-12-16T15:29:35.786Z,19.80
2018-12-16T15:32:16.882Z,19.20
2018-12-16T15:34:49.474Z,19.50
2018-12-16T15:37:22.223Z,22.67
2018-12-16T15:39:54.834Z,24.00
2018-12-16T15:42:27.213Z,23.47
2018-12-16T15:44:59.845Z,25.40
2018-12-16T15:47:32.452Z,25.07
2018-12-16T15:50:09.060Z,21.50
2018-12-16T15:52:41.623Z,21.70
2018-12-16T15:55:14.114Z,21.00
2018-12-16T15:57:46.722Z,22.93
2018-12-16T16:00:21.271Z,22.10
2018-12-16T16:02:54.245Z,24.77
2018-12-16T16:05:33.602Z,25.00
2018-12-16T16:08:06.308Z,22.77
2018-12-16T16:10:38.951Z,22.53
2018-12-16T16:13:11.360Z,24.30
2018-12-16T16:15:43.978Z,23.63
2018-12-16T16:18:16.397Z,23.17
2018-12-16T16:20:48.901Z,23.03
2018-12-16T16:23:21.459Z,23.07
2018-12-16T16:25:54.238Z,22.40
2018-12-16T16:28:26.871Z,21.63
2018-12-16T16:30:59.471Z,19.33
2018-12-16T16:33:31.892Z,19.60
2018-12-16T16:36:04.610Z,19.93
2018-12-16T16:38:37.137Z,22.93
2018-12-16T16:41:09.655Z,21.07
2018-12-16T16:43:42.247Z,21.33
2018-12-16T16:46:14.967Z,22.43
2018-12-16T16:48:47.366Z,21.10
2018-12-16T16:51:19.920Z,21.47
2018-12-16T16:53:52.769Z,21.30
2018-12-16T16:56:25.151Z,22.57
2018-12-16T16:58:57.649Z,22.03
2018-12-16T17:01:30.263Z,25.97
2018-12-16T17:04:02.979Z,23.73
2018-12-16T17:06:35.879Z,25.30
2018-12-16T17:09:08.498Z,25.40
2018-12-16T17:11:41.075Z,23.63
2018-12-16T17:14:13.870Z,22.27
2018-12-16T17:16:46.354Z,20.57
2018-12-16T17:19:19.359Z,22.47
2018-12-16T17:21:52.312Z,22.83
2018-12-16T17:24:25.055Z,23.37
2018-12-16T17:26:57.523Z,21.63
2018-12-16T17:29:29.944Z,21.17
2018-12-16T17:32:02.722Z,21.43
2018-12-16T17:34:35.326Z,22.73
2018-12-16T17:37:07.820Z,21.60
2018-12-16T17:39:40.601Z,24.23
2018-12-16T17:42:13.044Z,24.20
2018-12-16T17:44:45.930Z,24.80
2018-12-16T17:47:18.496Z,24.03
2018-12-16T17:49:51.002Z,22.47
2018-12-16T17:52:23.514Z,21.80
2018-12-16T17:54:56.045Z,21.27
2018-12-16T17:57:28.690Z,20.53
2018-12-16T18:00:01.491Z,20.63
2018-12-16T18:02:35.123Z,20.43
2018-12-16T18:05:08.498Z,20.13
2018-12-16T18:07:41.212Z,20.87
2018-12-16T18:10:14.082Z,20.73
2018-12-16T18:12:47.155Z,21.23
2018-12-16T18:15:19.815Z,21.40
2018-12-16T18:17:52.631Z,21.67
2018-12-16T18:20:25.354Z,22.10
2018-12-16T18:22:58.079Z,22.87
2018-12-16T18:25:30.569Z,22.47
2018-12-16T18:28:03.426Z,24.80
2018-12-16T18:30:36.020Z,23.87
2018-12-16T18:33:09.155Z,23.03
2018-12-16T18:35:41.898Z,22.73
2018-12-16T18:38:14.825Z,23.50
2018-12-16T18:40:47.486Z,22.00
2018-12-16T18:43:20.406Z,21.30
2018-12-16T18:45:53.123Z,21.67
2018-12-16T18:48:25.892Z,21.23
2018-12-16T18:50:58.605Z,21.73
2018-12-16T18:53:38.318Z,22.80
2018-12-16T18:56:10.903Z,20.07
2018-12-16T18:58:43.470Z,21.30
2018-12-16T19:01:15.970Z,20.37
2018-12-16T19:03:48.786Z,20.50
2018-12-16T19:06:21.665Z,22.27
2018-12-16T19:08:54.170Z,20.40
2018-12-16T19:11:27.011Z,21.77
2018-12-16T19:13:59.875Z,20.87
2018-12-16T19:16:32.421Z,21.50
2018-12-16T19:19:04.955Z,20.60
2018-12-16T19:21:37.487Z,20.43
2018-12-16T19:24:15.210Z,19.03
2018-12-16T19:26:47.801Z,20.43
2018-12-16T19:29:20.304Z,21.17
2018-12-16T19:31:52.882Z,21.50
2018-12-16T19:34:25.350Z,21.50
2018-12-16T19:36:58.022Z,21.93
2018-12-16T19:39:30.849Z,21.97
2018-12-16T19:42:03.496Z,20.47
2018-12-16T19:44:36.104Z,21.37
2018-12-16T19:47:13.809Z,21.87
2018-12-16T19:49:46.523Z,21.53
2018-12-16T19:52:19.149Z,21.90
2018-12-16T19:54:52.217Z,21.90
2018-12-16T19:57:24.708Z,21.30
2018-12-16T19:59:57.356Z,21.40
2018-12-16T20:02:29.910Z,21.63
2018-12-16T20:05:04.016Z,21.90
2018-12-16T20:07:36.476Z,21.53
2018-12-16T20:10:09.220Z,21.23
2018-12-16T20:12:41.793Z,22.90
2018-12-16T20:15:14.268Z,23.53
2018-12-16T20:17:46.750Z,22.93
2018-12-16T20:20:19.207Z,25.07
2018-12-16T20:22:51.724Z,23.20
2018-12-16T20:25:24.534Z,24.23
2018-12-16T20:27:57.124Z,24.80
2018-12-16T20:30:29.524Z,23.67
2018-12-16T20:33:02.154Z,25.67
2018-12-16T20:35:35.066Z,24.47
2018-12-16T20:38:07.826Z,24.37
2018-12-16T20:40:40.610Z,24.87
2018-12-16T20:43:13.435Z,24.77
2018-12-16T20:45:45.995Z,25.03
2018-12-16T20:48:18.777Z,24.87
2018-12-16T20:50:51.236Z,27.13
2018-12-16T20:53:30.782Z,26.53
2018-12-16T20:56:03.288Z,24.93
2018-12-16T20:58:36.097Z,26.30
2018-12-16T21:01:10.006Z,26.63
2018-12-16T21:03:42.560Z,26.30
2018-12-16T21:06:15.285Z,26.50
2018-12-16T21:08:47.990Z,27.40
2018-12-16T21:11:26.659Z,27.60
2018-12-16T21:14:05.050Z,25.43
2018-12-16T21:16:43.448Z,27.87
2018-12-16T21:19:16.010Z,27.87
2018-12-16T21:21:48.511Z,27.97
2018-12-16T21:24:21.219Z,26.80
2018-12-16T21:26:54.069Z,26.73
2018-12-16T21:29:26.686Z,27.17
2018-12-16T21:31:59.298Z,29.27
2018-12-16T21:34:31.920Z,28.90
2018-12-16T21:37:04.505Z,28.37
2018-12-16T21:39:37.099Z,26.87
2018-12-16T21:42:09.543Z,27.47
2018-12-16T21:44:49.107Z,26.23
2018-12-16T21:47:21.544Z,27.77
2018-12-16T21:49:53.986Z,27.63
2018-12-16T21:52:26.756Z,26.97
2018-12-16T21:54:59.329Z,29.10
2018-12-16T21:57:33.154Z,26.80
2018-12-16T22:00:07.136Z,26.90
2018-12-16T22:02:39.648Z,27.03
2018-12-16T22:05:13.274Z,27.83
2018-12-16T22:07:46.333Z,27.47
2018-12-16T22:10:18.680Z,27.40
2018-12-16T22:12:51.105Z,29.87
2018-12-16T22:15:23.430Z,28.13
2018-12-16T22:17:55.917Z,27.23
2018-12-16T22:20:28.280Z,27.57
2018-12-16T22:23:00.665Z,28.33
2018-12-16T22:25:33.040Z,27.37
2018-12-16T22:28:05.587Z,28.97
2018-12-16T22:30:38.098Z,26.47
2018-12-16T22:33:10.609Z,28.50
2018-12-16T22:35:43.013Z,26.53
2018-12-16T22:38:15.610Z,27.60
2018-12-16T22:40:48.195Z,27.50
2018-12-16T22:43:20.829Z,27.73
2018-12-16T22:45:53.302Z,27.10
2018-12-16T22:48:25.718Z,27.80
2018-12-16T22:50:58.099Z,27.77
2018-12-16T22:53:30.608Z,26.43
2018-12-16T22:56:03.023Z,25.10
2018-12-16T22:58:35.415Z,27.40
2018-12-16T23:01:14.331Z,25.57
2018-12-16T23:03:47.059Z,25.33
2018-12-16T23:06:19.505Z,25.73
2018-12-16T23:08:51.979Z,25.60
2018-12-16T23:11:24.490Z,26.03
2018-12-16T23:13:57.072Z,24.93
2018-12-16T23:16:29.678Z,23.17
2018-12-16T23:19:02.074Z,23.33
2018-12-16T23:21:34.522Z,24.97
2018-12-16T23:24:06.804Z,25.60
2018-12-16T23:26:39.267Z,23.77
2018-12-16T23:29:11.739Z,23.30
2018-12-16T23:31:44.112Z,23.40
2018-12-16T23:34:16.836Z,23.03
2018-12-16T23:36:49.392Z,23.10
2018-12-16T23:39:21.795Z,22.30
2018-12-16T23:41:54.383Z,22.37
2018-12-16T23:44:27.212Z,21.13
2018-12-16T23:46:59.753Z,23.60
2018-12-16T23:49:32.137Z,22.67
2018-12-16T23:52:04.574Z,21.03
2018-12-16T23:54:36.906Z,22.07
2018-12-16T23:57:09.418Z,22.00
2018-12-16T23:59:41.872Z,21.63
